Presidente Peron Airport
SAZN : rendu visible

Aérodrome :











RETROUVEZ-NOUS SUR...

 
LOGIN :

S'inscrire | Disclaimer

   EN    FR    IT 

 









Légende :    VFR   VFR Marginal   IFR   IFR Intensif   IFR Très Intensif
Visi : 
Plafond : 
>= 8 km
>= 3000ft
5 à 8 km
1000 à 3000 ft
1500m à 5 km
500 à 1000 ft
800 à 1500m
200 à 500 ft
< 800m
< 200 ft
Symboles :   Orages  Brouillard  Fortes neiges  Fortes précipitations  Vent > 20 kt






- Altitude de l'aérodrome : 895 ft
- Code IATA : NQN


SAZN - Presidente Peron

DERNIER METAR :
  • 090800Z 11003KT CAVOK 15/07 Q1017

METARs EXPIRÉS :
  • 090700Z 09004KT CAVOK 16/07 Q1017
  • 090600Z 07004KT CAVOK 17/07 Q1018
  • 090500Z 09007KT CAVOK 17/06 Q1018

TAF TAF SAZN
Valide du 09 à 06h jusqu'au 10 à 06h UTC


090500Z 0906/1006 07010KT CAVOK TX26/0919Z TN11/0910Z
BECMG 0918/0920 02010KT



MET'MAP, la Météo Aéronautique d'un coup d'oeil ! - Copyright ORBIFLY Décembre 2007 - Disclaimer

ORBIFLY MET'MAP TEAM :

Programmation & Développement : Alexandra Zaïnal
Sur une idée originale de : Baudouin d'Aumeries
Assistance à la programmation : Marc-Olivier Méhu
Soutien technique & logistique : Manuel Goepfert

Contact : metmap@orbifly.com




SOURCES & CREDITS :

   NOAA       Earth
Advisory